createdAt,value
2022-08-05T00:02:07.369Z,96229.84
2022-08-05T00:04:34.406Z,96235.22
2022-08-05T00:07:01.013Z,96225.81
2022-08-05T00:09:47.365Z,96226.47
2022-08-05T00:12:14.272Z,96228.16
2022-08-05T00:14:40.644Z,96220.44
2022-08-05T00:17:18.712Z,96224.66
2022-08-05T00:20:02.504Z,96224.34
2022-08-05T00:22:29.455Z,96224.13
2022-08-05T00:24:57.300Z,96226.09
2022-08-05T00:27:35.880Z,96226.88
2022-08-05T00:30:03.253Z,96228.69
2022-08-05T00:32:29.877Z,96234.06
2022-08-05T00:35:07.098Z,96227.53
2022-08-05T00:37:35.428Z,96234.69
2022-08-05T00:40:17.781Z,96236.59
2022-08-05T00:42:52.916Z,96238.28
2022-08-05T00:45:38.675Z,96225.84
2022-08-05T00:48:06.300Z,96227.88
2022-08-05T00:50:33.375Z,96233.56
2022-08-05T00:52:59.748Z,96225.41
2022-08-05T00:55:34.238Z,96226.63
2022-08-05T00:58:11.098Z,96227.31
2022-08-05T01:00:37.881Z,96231.22
2022-08-05T01:03:07.674Z,96219.72
2022-08-05T01:05:34.468Z,96216.56
2022-08-05T01:08:42.156Z,96214.88
2022-08-05T01:10:51.432Z,96213.97
2022-08-05T01:13:22.174Z,96215.44
2022-08-05T01:15:53.465Z,96212.09
2022-08-05T01:18:21.084Z,96212.09
2022-08-05T01:20:47.452Z,96215.00
2022-08-05T01:23:23.205Z,96206.72
2022-08-05T01:25:53.435Z,96209.41
2022-08-05T01:28:20.327Z,96206.72
2022-08-05T01:30:50.693Z,96207.38
2022-08-05T01:33:21.417Z,96201.34
2022-08-05T01:35:53.181Z,96200.91
2022-08-05T01:38:26.871Z,96202.66
2022-08-05T01:40:55.389Z,96195.88
2022-08-05T01:43:21.961Z,96192.84
2022-08-05T01:45:56.220Z,96190.16
2022-08-05T01:48:23.224Z,96199.56
2022-08-05T01:50:51.055Z,96202.66
2022-08-05T01:53:17.801Z,96207.38
2022-08-05T01:56:04.472Z,96202.66
2022-08-05T01:58:40.489Z,96198.88
2022-08-05T02:01:11.251Z,96201.34
2022-08-05T02:03:37.674Z,96205.34
2022-08-05T02:06:33.240Z,96204.25
2022-08-05T02:08:58.444Z,96201.44
2022-08-05T02:11:33.178Z,96199.78
2022-08-05T02:14:00.283Z,96194.28
2022-08-05T02:16:28.004Z,96202.56
2022-08-05T02:18:55.073Z,96204.25
2022-08-05T02:21:21.809Z,96199.44
2022-08-05T02:23:48.478Z,96196.63
2022-08-05T02:26:14.960Z,96197.97
2022-08-05T02:28:45.761Z,96199.91
2022-08-05T02:31:14.607Z,96199.91
2022-08-05T02:33:41.328Z,96199.13
2022-08-05T02:36:09.478Z,96205.72
2022-08-05T02:38:35.952Z,96200.69
2022-08-05T02:41:06.481Z,96210.53
2022-08-05T02:44:02.359Z,96202.25
2022-08-05T02:46:27.758Z,96196.88
2022-08-05T02:48:55.356Z,96195.19
2022-08-05T02:51:28.477Z,96208.72
2022-08-05T02:54:08.082Z,96209.63
2022-08-05T02:56:34.689Z,96207.84
2022-08-05T02:59:01.059Z,96208.97
2022-08-05T03:01:27.577Z,96203.13
2022-08-05T03:04:02.207Z,96201.81
2022-08-05T03:06:55.097Z,96200.44
2022-08-05T03:09:17.686Z,96207.38
2022-08-05T03:11:57.896Z,96203.47
2022-08-05T03:14:24.636Z,96201.34
2022-08-05T03:16:53.372Z,96198.31
2022-08-05T03:19:33.469Z,96203.69
2022-08-05T03:22:01.055Z,96209.72
2022-08-05T03:24:30.200Z,96211.31
2022-08-05T03:26:57.093Z,96209.63
2022-08-05T03:29:23.681Z,96210.28
2022-08-05T03:31:56.665Z,96208.84
2022-08-05T03:34:26.689Z,96206.28
2022-08-05T03:36:53.405Z,96206.47
2022-08-05T03:39:27.245Z,96203.34
2022-08-05T03:41:56.319Z,96205.13
2022-08-05T03:44:22.916Z,96207.13
2022-08-05T03:46:49.285Z,96202.66
2022-08-05T03:49:15.660Z,96208.03
2022-08-05T03:52:38.841Z,96204.13
2022-08-05T03:55:52.151Z,96198.63
2022-08-05T03:57:16.567Z,96201.78
2022-08-05T04:00:01.669Z,96202.91
2022-08-05T04:02:37.498Z,96199.56
2022-08-05T04:05:05.612Z,96202.00
2022-08-05T04:07:36.128Z,96205.81
2022-08-05T04:10:22.473Z,96204.78
2022-08-05T04:12:48.834Z,96207.13
2022-08-05T04:15:15.661Z,96206.25
2022-08-05T04:17:57.351Z,96204.38
2022-08-05T04:20:26.375Z,96204.66
2022-08-05T04:22:52.758Z,96201.00
2022-08-05T04:25:19.136Z,96202.56
2022-08-05T04:28:11.355Z,96208.59
2022-08-05T04:30:39.228Z,96203.88
2022-08-05T04:33:06.092Z,96209.38
2022-08-05T04:36:16.472Z,96217.13
2022-08-05T04:38:20.332Z,96220.22
2022-08-05T04:40:50.844Z,96223.84
2022-08-05T04:43:17.368Z,96225.47
2022-08-05T04:45:48.896Z,96215.66
2022-08-05T04:48:27.428Z,96223.16
2022-08-05T04:51:02.696Z,96232.69
2022-08-05T04:53:36.349Z,96228.84
2022-08-05T04:56:33.769Z,96227.75
2022-08-05T04:58:51.421Z,96232.00
2022-08-05T05:02:06.396Z,96234.22
2022-08-05T05:04:05.205Z,96232.00
2022-08-05T05:06:35.830Z,96229.66
2022-08-05T05:09:06.110Z,96230.44
2022-08-05T05:11:41.485Z,96235.59
2022-08-05T05:14:16.253Z,96231.34
2022-08-05T05:16:42.774Z,96229.78
2022-08-05T05:19:19.258Z,96232.81
2022-08-05T05:21:49.864Z,96239.75
2022-08-05T05:24:21.973Z,96236.72
2022-08-05T05:26:48.349Z,96242.09
2022-08-05T05:29:18.357Z,96249.69
2022-08-05T05:31:46.188Z,96251.28
2022-08-05T05:34:12.937Z,96256.97
2022-08-05T05:36:41.965Z,96253.50
2022-08-05T05:39:10.920Z,96259.66
2022-08-05T05:41:40.824Z,96256.66
2022-08-05T05:44:36.984Z,96262.03
2022-08-05T05:46:54.685Z,96267.38
2022-08-05T05:49:24.196Z,96275.78
2022-08-05T05:51:50.901Z,96271.97
2022-08-05T05:54:19.888Z,96269.63
2022-08-05T05:56:46.244Z,96259.66
2022-08-05T05:59:13.775Z,96260.44
2022-08-05T06:01:40.303Z,96255.06
2022-08-05T06:04:06.921Z,96260.44
2022-08-05T06:06:34.808Z,96258.88
2022-08-05T06:09:01.440Z,96267.38
2022-08-05T06:11:30.164Z,96271.16
2022-08-05T06:13:56.690Z,96278.56
2022-08-05T06:16:30.437Z,96283.59
2022-08-05T06:19:00.941Z,96277.47
2022-08-05T06:21:36.625Z,96276.00
2022-08-05T06:24:03.682Z,96277.91
2022-08-05T06:26:33.804Z,96276.81
2022-08-05T06:29:03.692Z,96277.56
2022-08-05T06:31:47.773Z,96281.06
2022-08-05T06:34:17.030Z,96279.94
2022-08-05T06:36:57.317Z,96286.22
2022-08-05T06:39:27.225Z,96280.84
2022-08-05T06:41:54.292Z,96285.09
2022-08-05T06:44:21.970Z,96282.88
2022-08-05T06:46:50.926Z,96289.34
2022-08-05T06:49:17.605Z,96295.97
2022-08-05T06:51:45.377Z,96302.59
2022-08-05T06:54:12.042Z,96295.00
2022-08-05T06:56:54.641Z,96300.38
2022-08-05T06:59:38.501Z,96292.75
2022-08-05T07:02:05.345Z,96292.06
2022-08-05T07:04:31.724Z,96300.59
2022-08-05T07:06:59.378Z,96303.75
2022-08-05T07:09:25.742Z,96300.59
2022-08-05T07:12:00.523Z,96300.47
2022-08-05T07:14:29.809Z,96305.97
2022-08-05T07:18:01.318Z,96302.63
2022-08-05T07:22:30.453Z,96308.31
2022-08-05T07:24:56.930Z,96310.88
2022-08-05T07:27:27.226Z,96296.59
2022-08-05T07:30:23.888Z,96290.88
2022-08-05T07:32:53.532Z,96297.84
2022-08-05T07:36:02.889Z,96303.97
2022-08-05T07:38:06.310Z,96310.03
2022-08-05T07:40:38.917Z,96306.44
2022-08-05T07:43:14.510Z,96300.88
2022-08-05T07:45:57.541Z,96302.75
2022-08-05T07:49:01.586Z,96307.78
2022-08-05T07:51:23.848Z,96311.72
2022-08-05T07:53:57.375Z,96318.78
2022-08-05T07:57:00.516Z,96321.97
2022-08-05T07:59:10.715Z,96314.34
2022-08-05T08:01:51.756Z,96317.47
2022-08-05T08:04:34.368Z,96316.81
2022-08-05T08:07:05.515Z,96325.34
2022-08-05T08:09:33.612Z,96323.78
2022-08-05T08:12:06.228Z,96320.84
2022-08-05T08:14:37.767Z,96323.53
2022-08-05T08:17:07.156Z,96321.78
2022-08-05T08:20:22.989Z,96326.38
2022-08-05T08:22:21.198Z,96318.44
2022-08-05T08:24:53.346Z,96328.50
2022-08-05T08:27:19.721Z,96324.34
2022-08-05T08:30:05.361Z,96319.31
2022-08-05T08:32:32.622Z,96323.81
2022-08-05T08:34:59.068Z,96317.63
2022-08-05T08:37:27.922Z,96333.66
2022-08-05T08:39:54.667Z,96320.00
2022-08-05T08:42:34.318Z,96324.72
2022-08-05T08:45:18.772Z,96324.59
2022-08-05T08:48:06.885Z,96324.47
2022-08-05T08:51:04.034Z,96329.19
2022-08-05T08:53:25.014Z,96323.22
2022-08-05T08:56:04.574Z,96315.97
2022-08-05T08:58:43.998Z,96320.91
2022-08-05T09:01:16.206Z,96316.88
2022-08-05T09:03:45.573Z,96320.47
2022-08-05T09:06:16.995Z,96322.69
2022-08-05T09:08:44.921Z,96313.28
2022-08-05T09:11:12.246Z,96323.81
2022-08-05T09:14:00.946Z,96327.50
2022-08-05T09:16:26.907Z,96332.75
2022-08-05T09:18:53.399Z,96332.53
2022-08-05T09:22:22.396Z,96340.38
2022-08-05T09:24:08.214Z,96341.59
2022-08-05T09:26:36.722Z,96343.50
2022-08-05T09:29:03.125Z,96348.75
2022-08-05T09:32:40.246Z,96339.25
2022-08-05T09:34:16.872Z,96336.09
2022-08-05T09:36:54.084Z,96328.22
2022-08-05T09:39:22.216Z,96345.03
2022-08-05T09:41:53.916Z,96338.97
2022-08-05T09:44:22.672Z,96338.09
2022-08-05T09:46:53.683Z,96335.41
2022-08-05T09:49:40.447Z,96334.91
2022-08-05T09:52:10.889Z,96325.09
2022-08-05T09:54:37.546Z,96321.03
2022-08-05T09:57:06.570Z,96318.59
2022-08-05T09:59:49.919Z,96320.16
2022-08-05T10:02:16.395Z,96320.06
2022-08-05T10:04:46.881Z,96316.94
2022-08-05T10:07:20.247Z,96308.06
2022-08-05T10:10:04.215Z,96309.44
2022-08-05T10:12:49.317Z,96299.47
2022-08-05T10:15:17.337Z,96296.91
2022-08-05T10:17:56.708Z,96293.56
2022-08-05T10:20:24.052Z,96298.94
2022-08-05T10:22:51.546Z,96291.75
2022-08-05T10:25:17.946Z,96280.78
2022-08-05T10:28:13.661Z,96289.28
2022-08-05T10:31:20.052Z,96285.50
2022-08-05T10:33:18.557Z,96281.00
2022-08-05T10:35:48.548Z,96274.94
2022-08-05T10:38:25.669Z,96275.06
2022-08-05T10:40:58.094Z,96279.44
2022-08-05T10:43:30.850Z,96274.41
2022-08-05T10:46:06.286Z,96270.91
2022-08-05T10:48:38.400Z,96270.78
2022-08-05T10:51:21.649Z,96268.69
2022-08-05T10:53:49.198Z,96270.13
2022-08-05T10:56:25.746Z,96270.78
2022-08-05T10:58:52.602Z,96268.34
2022-08-05T11:01:28.371Z,96264.41
2022-08-05T11:04:05.297Z,96272.03
2022-08-05T11:06:32.605Z,96259.69
2022-08-05T11:08:58.961Z,96267.56
2022-08-05T11:11:25.330Z,96261.50
2022-08-05T11:14:08.376Z,96261.50
2022-08-05T11:16:47.686Z,96265.00
2022-08-05T11:20:16.641Z,96256.59
2022-08-05T11:22:07.656Z,96257.69
2022-08-05T11:24:35.910Z,96251.63
2022-08-05T11:27:05.201Z,96249.88
2022-08-05T11:29:31.572Z,96244.47
2022-08-05T11:32:01.142Z,96245.16
2022-08-05T11:34:27.634Z,96239.09
2022-08-05T11:36:54.942Z,96233.72
2022-08-05T11:39:23.211Z,96235.97
2022-08-05T11:42:00.888Z,96237.97
2022-08-05T11:44:53.093Z,96231.38
2022-08-05T11:47:21.545Z,96223.66
2022-08-05T11:49:49.536Z,96220.28
2022-08-05T11:52:17.432Z,96218.94
2022-08-05T11:54:55.002Z,96225.41
2022-08-05T11:57:39.428Z,96215.13
2022-08-05T12:00:08.505Z,96216.25
2022-08-05T12:02:36.129Z,96221.84
2022-08-05T12:05:07.027Z,96216.47
2022-08-05T12:08:07.584Z,96217.13
2022-08-05T12:10:21.102Z,96213.44
2022-08-05T12:12:59.841Z,96216.91
2022-08-05T12:15:35.843Z,96217.47
2022-08-05T12:18:10.866Z,96212.31
2022-08-05T12:20:38.665Z,96215.47
2022-08-05T12:23:05.225Z,96200.53
2022-08-05T12:25:31.587Z,96196.75
2022-08-05T12:27:57.942Z,96193.59
2022-08-05T12:30:32.075Z,96196.06
2022-08-05T12:32:58.726Z,96184.75
2022-08-05T12:35:37.230Z,96186.75
2022-08-05T12:38:06.328Z,96184.19
2022-08-05T12:40:32.693Z,96181.50
2022-08-05T12:42:59.065Z,96171.31
2022-08-05T12:45:42.644Z,96183.63
2022-08-05T12:48:27.570Z,96175.88
2022-08-05T12:50:58.096Z,96171.19
2022-08-05T12:53:36.960Z,96165.59
2022-08-05T12:56:05.020Z,96168.47
2022-08-05T12:58:55.721Z,96159.06
2022-08-05T13:02:03.964Z,96161.41
2022-08-05T13:04:20.572Z,96149.19
2022-08-05T13:06:51.836Z,96148.50
2022-08-05T13:09:28.789Z,96134.63
2022-08-05T13:12:01.920Z,96132.16
2022-08-05T13:14:36.241Z,96133.94
2022-08-05T13:17:03.151Z,96133.03
2022-08-05T13:19:52.532Z,96128.56
2022-08-05T13:22:29.161Z,96123.19
2022-08-05T13:24:58.017Z,96133.03
2022-08-05T13:27:35.541Z,96123.19
2022-08-05T13:30:34.543Z,96121.72
2022-08-05T13:32:51.174Z,96123.19
2022-08-05T13:35:22.449Z,96118.56
2022-08-05T13:38:06.007Z,96125.66
2022-08-05T13:40:51.325Z,96113.13
2022-08-05T13:43:21.847Z,96122.50
2022-08-05T13:45:48.717Z,96116.22
2022-08-05T13:48:58.390Z,96117.81
2022-08-05T13:51:03.596Z,96122.50
2022-08-05T13:53:31.053Z,96124.56
2022-08-05T13:56:01.933Z,96125.66
2022-08-05T13:58:30.828Z,96128.34
2022-08-05T14:00:57.538Z,96127.91
2022-08-05T14:03:24.167Z,96130.19
2022-08-05T14:06:26.333Z,96121.00
2022-08-05T14:08:37.011Z,96125.03
2022-08-05T14:11:20.857Z,96123.03
2022-08-05T14:13:48.530Z,96129.75
2022-08-05T14:16:21.273Z,96136.25
2022-08-05T14:18:47.640Z,96130.44
2022-08-05T14:22:07.273Z,96133.78
2022-08-05T14:24:00.705Z,96137.28
2022-08-05T14:26:38.765Z,96131.78
2022-08-05T14:29:16.435Z,96135.47
2022-08-05T14:32:03.726Z,96135.69
2022-08-05T14:34:29.574Z,96137.69
2022-08-05T14:37:01.900Z,96139.84
2022-08-05T14:39:28.308Z,96142.06
2022-08-05T14:42:19.548Z,96142.66
2022-08-05T14:44:41.917Z,96133.56
2022-08-05T14:47:08.894Z,96131.31
2022-08-05T14:49:59.186Z,96129.06
2022-08-05T14:52:42.806Z,96112.94
2022-08-05T14:55:07.993Z,96110.72
2022-08-05T14:57:54.210Z,96106.69
2022-08-05T15:00:27.706Z,96104.88
2022-08-05T15:02:54.836Z,96111.47
2022-08-05T15:05:21.274Z,96100.72
2022-08-05T15:08:05.364Z,96099.63
2022-08-05T15:10:33.968Z,96090.06
2022-08-05T15:13:04.081Z,96092.44
2022-08-05T15:15:54.978Z,96090.75
2022-08-05T15:18:17.502Z,96094.56
2022-08-05T15:20:43.907Z,96100.63
2022-08-05T15:23:12.416Z,96104.66
2022-08-05T15:25:51.236Z,96110.38
2022-08-05T15:28:20.313Z,96117.88
2022-08-05T15:30:51.541Z,96114.84
2022-08-05T15:34:04.677Z,96122.56
2022-08-05T15:36:05.855Z,96122.91
2022-08-05T15:38:43.406Z,96121.47
2022-08-05T15:41:23.077Z,96109.13
2022-08-05T15:43:50.568Z,96116.78
2022-08-05T15:46:17.328Z,96122.81
2022-08-05T15:48:52.746Z,96125.16
2022-08-05T15:52:03.895Z,96135.59
2022-08-05T15:54:11.533Z,96136.81
2022-08-05T15:56:41.698Z,96132.78
2022-08-05T15:59:08.069Z,96121.72
2022-08-05T16:01:39.933Z,96118.13
2022-08-05T16:04:19.414Z,96116.66
2022-08-05T16:06:45.817Z,96114.50
2022-08-05T16:09:12.193Z,96119.00
2022-08-05T16:11:42.493Z,96126.59
2022-08-05T16:14:09.589Z,96133.56
2022-08-05T16:16:35.943Z,96127.06
2022-08-05T16:19:02.296Z,96136.34
2022-08-05T16:21:58.436Z,96138.94
2022-08-05T16:24:39.831Z,96144.31
2022-08-05T16:27:01.371Z,96139.63
2022-08-05T16:29:28.557Z,96147.44
2022-08-05T16:31:57.859Z,96145.88
2022-08-05T16:34:24.244Z,96150.47
2022-08-05T16:36:52.723Z,96146.56
2022-08-05T16:39:20.732Z,96147.78
2022-08-05T16:42:14.339Z,96151.25
2022-08-05T16:44:33.635Z,96157.31
2022-08-05T16:47:00.000Z,96153.63
2022-08-05T16:49:26.359Z,96161.69
2022-08-05T16:51:54.909Z,96154.97
2022-08-05T16:54:28.967Z,96160.00
2022-08-05T16:56:58.413Z,96167.88
2022-08-05T16:59:24.779Z,96189.38
2022-08-05T17:01:55.979Z,96198.09
2022-08-05T17:04:23.803Z,96218.69
2022-08-05T17:06:53.242Z,96225.53
2022-08-05T17:09:20.043Z,96240.88
2022-08-05T17:11:48.690Z,96242.22
2022-08-05T17:14:34.538Z,96256.59
2022-08-05T17:17:03.513Z,96272.81
2022-08-05T17:19:31.000Z,96280.19
2022-08-05T17:21:57.366Z,96290.19
2022-08-05T17:24:36.520Z,96305.41
2022-08-05T17:27:08.733Z,96301.63
2022-08-05T17:29:41.207Z,96307.91
2022-08-05T17:32:08.447Z,96311.59
2022-08-05T17:34:37.929Z,96326.28
2022-08-05T17:37:04.621Z,96322.94
2022-08-05T17:39:55.044Z,96342.88
2022-08-05T17:42:26.986Z,96349.13
2022-08-05T17:44:56.586Z,96362.63
2022-08-05T17:47:23.659Z,96370.88
2022-08-05T17:49:59.844Z,96375.00
2022-08-05T17:52:30.806Z,96384.09
2022-08-05T17:54:57.559Z,96374.78
2022-08-05T17:57:24.543Z,96380.50
2022-08-05T18:00:03.457Z,96379.59
2022-08-05T18:02:32.058Z,96387.69
2022-08-05T18:04:58.564Z,96385.88
2022-08-05T18:07:25.266Z,96388.09
2022-08-05T18:10:08.790Z,96394.41
2022-08-05T18:12:36.936Z,96400.19
2022-08-05T18:15:03.792Z,96404.91
2022-08-05T18:17:59.025Z,96417.25
2022-08-05T18:20:17.524Z,96427.56
2022-08-05T18:22:54.316Z,96442.16
2022-08-05T18:25:21.139Z,96460.72
2022-08-05T18:27:52.323Z,96467.22
2022-08-05T18:30:19.175Z,96467.88
2022-08-05T18:32:53.204Z,96458.56
2022-08-05T18:35:20.215Z,96467.75
2022-08-05T18:38:06.553Z,96479.28
2022-08-05T18:41:53.847Z,96486.69
2022-08-05T18:43:20.767Z,96488.47
2022-08-05T18:45:49.529Z,96488.06
2022-08-05T18:48:30.759Z,96500.56
2022-08-05T18:51:01.694Z,96502.34
2022-08-05T18:53:50.381Z,96499.47
2022-08-05T18:56:17.000Z,96511.31
2022-08-05T18:58:48.218Z,96514.56
2022-08-05T19:01:18.051Z,96516.53
2022-08-05T19:03:55.382Z,96523.81
2022-08-05T19:06:34.058Z,96536.72
2022-08-05T19:09:01.525Z,96534.69
2022-08-05T19:11:37.023Z,96529.75
2022-08-05T19:14:37.995Z,96537.47
2022-08-05T19:17:00.594Z,96540.88
2022-08-05T19:19:26.953Z,96548.66
2022-08-05T19:21:57.001Z,96562.38
2022-08-05T19:24:34.627Z,96564.69
2022-08-05T19:27:04.002Z,96568.81
2022-08-05T19:29:36.202Z,96571.19
2022-08-05T19:32:02.985Z,96579.09
2022-08-05T19:34:30.834Z,96576.88
2022-08-05T19:36:57.195Z,96574.16
2022-08-05T19:39:23.609Z,96576.16
2022-08-05T19:42:06.587Z,96569.34
2022-08-05T19:44:44.467Z,96577.88
2022-08-05T19:47:11.700Z,96576.38
2022-08-05T19:49:41.726Z,96579.06
2022-08-05T19:52:29.403Z,96588.16
2022-08-05T19:54:54.826Z,96588.44
2022-08-05T19:57:49.118Z,96583.97
2022-08-05T20:00:07.582Z,96589.53
2022-08-05T20:02:35.918Z,96595.56
2022-08-05T20:05:04.668Z,96598.16
2022-08-05T20:07:46.801Z,96606.03
2022-08-05T20:10:15.283Z,96600.50
2022-08-05T20:12:47.910Z,96599.38
2022-08-05T20:15:14.848Z,96608.25
2022-08-05T20:17:41.210Z,96607.34
2022-08-05T20:20:11.038Z,96612.06
2022-08-05T20:22:37.584Z,96604.81
2022-08-05T20:25:07.894Z,96610.88
2022-08-05T20:27:41.887Z,96615.19
2022-08-05T20:30:08.534Z,96614.53
2022-08-05T20:32:34.896Z,96615.06
2022-08-05T20:35:02.549Z,96628.31
2022-08-05T20:38:05.832Z,96621.22
2022-08-05T20:40:15.241Z,96631.97
2022-08-05T20:42:44.395Z,96636.19
2022-08-05T20:45:10.739Z,96633.56
2022-08-05T20:47:40.142Z,96635.84
2022-08-05T20:50:07.456Z,96637.63
2022-08-05T20:52:34.026Z,96642.50
2022-08-05T20:55:54.785Z,96658.47
2022-08-05T20:57:46.915Z,96662.69
2022-08-05T21:00:35.044Z,96663.34
2022-08-05T21:03:01.742Z,96664.63
2022-08-05T21:05:38.017Z,96669.72
2022-08-05T21:08:14.458Z,96671.88
2022-08-05T21:10:40.812Z,96683.63
2022-08-05T21:13:46.963Z,96685.16
2022-08-05T21:16:01.929Z,96688.63
2022-08-05T21:18:30.012Z,96693.84
2022-08-05T21:20:57.109Z,96692.84
2022-08-05T21:23:23.476Z,96685.94
2022-08-05T21:25:50.471Z,96685.47
2022-08-05T21:28:18.419Z,96686.75
2022-08-05T21:30:45.165Z,96688.91
2022-08-05T21:33:22.453Z,96685.47
2022-08-05T21:35:55.759Z,96685.03
2022-08-05T21:38:24.990Z,96683.47
2022-08-05T21:40:51.361Z,96687.34
2022-08-05T21:43:24.488Z,96692.56
2022-08-05T21:45:56.648Z,96690.53
2022-08-05T21:48:24.371Z,96690.50
2022-08-05T21:50:53.049Z,96681.66
2022-08-05T21:53:20.916Z,96679.63
2022-08-05T21:56:05.369Z,96686.44
2022-08-05T21:58:33.638Z,96678.16
2022-08-05T22:01:00.372Z,96682.47
2022-08-05T22:03:48.727Z,96672.34
2022-08-05T22:06:13.361Z,96671.41
2022-08-05T22:08:42.486Z,96665.84
2022-08-05T22:11:09.275Z,96669.66
2022-08-05T22:14:19.746Z,96669.47
2022-08-05T22:16:41.913Z,96672.47
2022-08-05T22:19:56.072Z,96677.03
2022-08-05T22:21:55.572Z,96676.25
2022-08-05T22:24:40.205Z,96677.84
2022-08-05T22:27:08.501Z,96665.50
2022-08-05T22:29:37.461Z,96669.78
2022-08-05T22:32:03.827Z,96669.03
2022-08-05T22:34:30.236Z,96671.50
2022-08-05T22:36:56.600Z,96676.25
2022-08-05T22:39:28.495Z,96674.41
2022-08-05T22:42:09.771Z,96676.28
2022-08-05T22:44:38.239Z,96680.72
2022-08-05T22:47:05.856Z,96678.81
2022-08-05T22:50:20.155Z,96679.63
2022-08-05T22:52:22.820Z,96680.84
2022-08-05T22:54:58.487Z,96672.69
2022-08-05T22:57:24.855Z,96680.41
2022-08-05T22:59:54.285Z,96676.59
2022-08-05T23:02:29.564Z,96686.72
2022-08-05T23:04:56.548Z,96680.91
2022-08-05T23:07:22.918Z,96678.22
2022-08-05T23:09:58.071Z,96682.97
2022-08-05T23:12:29.045Z,96678.25
2022-08-05T23:14:59.377Z,96679.16
2022-08-05T23:17:34.106Z,96675.09
2022-08-05T23:20:03.479Z,96671.91
2022-08-05T23:22:30.878Z,96678.09
2022-08-05T23:24:57.427Z,96679.66
2022-08-05T23:27:24.143Z,96678.53
2022-08-05T23:29:55.349Z,96668.44
2022-08-05T23:32:22.750Z,96660.41
2022-08-05T23:34:49.492Z,96668.59
2022-08-05T23:37:17.259Z,96661.50
2022-08-05T23:39:53.876Z,96665.19
2022-08-05T23:42:28.952Z,96659.13
2022-08-05T23:44:55.822Z,96656.94
2022-08-05T23:47:22.192Z,96649.25
2022-08-05T23:49:51.979Z,96650.94
2022-08-05T23:52:18.682Z,96642.25
2022-08-05T23:54:45.264Z,96641.66
2022-08-05T23:57:11.629Z,96645.91
